Time;durP1;ratioP1;P1;durP2;ratioP2;P2;SDS_P1;SDS_P2;PMS_P1;PMS_P2;Temp;Humidity;BMP_temperature;BMP_pressure;BME280_temperature;BME280_humidity;BME280_pressure;Samples;Min_cycle;Max_cycle;Signal;HPM_P1;HPM_P2
2021/05/14 07:26:51;;;;;;;3.17;1.23;;;14.90;53.30;;;;;;5015319;28;20281;-92
2021/05/14 07:29:18;;;;;;;1.95;1.02;;;15.40;53.00;;;;;;5012141;28;20228;-93
2021/05/14 07:32:11;;;;;;;3.00;1.00;;;15.90;51.30;;;;;;5014920;28;20578;-91
2021/05/14 07:34:38;;;;;;;1.60;1.10;;;16.30;50.60;;;;;;5012221;28;20215;-92
2021/05/14 07:37:05;;;;;;;1.95;1.15;;;16.20;45.90;;;;;;5030881;28;20210;-90
2021/05/14 07:39:32;;;;;;;2.97;1.10;;;15.80;46.80;;;;;;5013971;28;20199;-88
2021/05/14 07:42:00;;;;;;;2.80;1.10;;;15.50;48.70;;;;;;5008118;28;20250;-90
2021/05/14 07:44:33;;;;;;;1.48;1.00;;;15.80;49.00;;;;;;5007600;28;20226;-91
2021/05/14 07:47:00;;;;;;;2.65;1.08;;;15.80;46.80;;;;;;5005782;28;20278;-91
2021/05/14 07:49:30;;;;;;;1.70;1.00;;;15.80;45.70;;;;;;5005394;28;20219;-91
2021/05/14 07:51:56;;;;;;;1.52;1.05;;;15.90;48.00;;;;;;5001598;28;20227;-90
2021/05/14 07:54:23;;;;;;;1.73;1.10;;;15.90;47.20;;;;;;4995480;28;20195;-89
2021/05/14 07:56:49;;;;;;;1.60;1.23;;;15.70;46.90;;;;;;5009216;28;20285;-92
2021/05/14 08:02:18;;;;;;;1.15;0.90;;;15.00;51.10;;;;;;4978777;28;20223;-92
2021/05/14 08:04:45;;;;;;;1.23;1.10;;;15.00;51.40;;;;;;5008824;28;20253;-91
2021/05/14 08:07:12;;;;;;;3.65;1.10;;;15.00;50.30;;;;;;5004087;28;20238;-92
2021/05/14 08:09:40;;;;;;;1.38;1.13;;;15.10;51.50;;;;;;4986239;28;20208;-92
2021/05/14 08:12:14;;;;;;;3.15;0.98;;;15.30;48.50;;;;;;4988797;28;20227;-91
2021/05/14 08:14:41;;;;;;;0.77;0.77;;;15.70;47.20;;;;;;5004677;28;20214;-91
2021/05/14 08:17:08;;;;;;;2.42;0.98;;;16.00;47.80;;;;;;4995081;28;20226;-91
2021/05/14 08:19:34;;;;;;;0.80;0.80;;;16.00;46.20;;;;;;5020481;28;20277;-91
2021/05/14 08:22:32;;;;;;;1.67;0.82;;;15.70;46.40;;;;;;5029863;28;20227;-92
2021/05/14 08:24:58;;;;;;;2.20;1.20;;;15.50;48.80;;;;;;4989983;28;20207;-92
2021/05/14 08:27:25;;;;;;;2.13;0.90;;;15.40;51.70;;;;;;5011789;28;20231;-92
2021/05/14 08:29:52;;;;;;;3.20;1.00;;;15.20;49.20;;;;;;5146238;23;20732;-91
2021/05/14 08:32:19;;;;;;;1.55;0.85;;;14.70;51.10;;;;;;5039491;28;20210;-92
2021/05/14 08:35:09;;;;;;;0.73;0.70;;;14.60;51.00;;;;;;5034661;28;20203;-91
2021/05/14 08:58:45;;;;;;;1.33;0.93;;;20.80;32.70;;;;;;5038905;28;20572;-85
2021/05/14 09:04:57;;;;;;;1.48;1.00;;;26.50;20.00;;;;;;5038182;28;20189;-89
2021/05/14 09:07:44;;;;;;;1.30;1.20;;;27.20;18.30;;;;;;5035828;28;20209;-89
2021/05/14 09:10:11;;;;;;;1.13;1.13;;;28.00;18.00;;;;;;5052317;28;20193;-89
2021/05/14 09:16:00;;;;;;;3.83;1.80;;;28.50;17.50;;;;;;5041776;28;20261;-90
2021/05/14 09:18:28;;;;;;;2.67;1.40;;;26.40;19.70;;;;;;5036540;28;20648;-89
2021/05/14 09:20:56;;;;;;;1.30;1.20;;;24.20;23.80;;;;;;5042708;28;20198;-89
2021/05/14 09:23:27;;;;;;;1.98;1.05;;;25.00;22.40;;;;;;5037136;28;20274;-88
2021/05/14 09:25:56;;;;;;;2.35;1.50;;;25.40;23.40;;;;;;5036464;28;20585;-88
2021/05/14 09:28:24;;;;;;;1.85;1.60;;;24.60;22.00;;;;;;5035795;28;20241;-87
2021/05/14 09:31:01;;;;;;;1.55;1.40;;;23.80;23.80;;;;;;5030787;28;20194;-86
2021/05/14 09:33:28;;;;;;;1.40;1.30;;;22.00;25.90;;;;;;5034998;28;20194;-85
2021/05/14 09:35:59;;;;;;;1.60;1.40;;;20.40;28.80;;;;;;5038491;28;20190;-87
2021/05/14 09:38:26;;;;;;;2.50;1.30;;;19.70;31.80;;;;;;5039660;28;20201;-86
2021/05/14 09:40:52;;;;;;;1.40;1.30;;;21.00;32.90;;;;;;5039860;28;20574;-89
2021/05/14 09:43:19;;;;;;;37.95;31.85;;;24.10;24.80;;;;;;5037051;28;20378;-90
2021/05/14 09:45:47;;;;;;;1.30;1.20;;;26.00;18.90;;;;;;5035183;28;20201;-84
2021/05/14 09:48:16;;;;;;;2.33;1.50;;;26.90;18.50;;;;;;5030239;28;20206;-86
2021/05/14 09:50:43;;;;;;;1.60;1.50;;;27.50;19.20;;;;;;5036423;28;20198;-87
2021/05/14 09:53:12;;;;;;;3.53;3.17;;;28.20;16.90;;;;;;5032177;28;20218;-86
2021/05/14 09:55:43;;;;;;;2.35;2.15;;;27.90;15.60;;;;;;5033053;28;20199;-86
2021/05/14 09:58:21;;;;;;;1.88;1.40;;;27.20;17.30;;;;;;5038820;28;20229;-87
2021/05/14 10:00:48;;;;;;;2.30;1.90;;;27.10;19.60;;;;;;5034929;28;20212;-86
2021/05/14 10:03:16;;;;;;;1.55;1.40;;;27.80;17.60;;;;;;5038221;28;20229;-87
2021/05/14 10:05:44;;;;;;;1.30;1.20;;;27.40;16.60;;;;;;5022371;28;20765;-88
2021/05/14 10:08:14;;;;;;;1.30;1.10;;;26.30;18.30;;;;;;5041802;28;20209;-88
2021/05/14 10:10:41;;;;;;;1.35;1.20;;;26.10;20.60;;;;;;5042408;28;20670;-89
2021/05/14 10:13:08;;;;;;;2.25;1.10;;;25.70;20.60;;;;;;5029284;28;20241;-87
2021/05/14 10:15:34;;;;;;;3.33;1.27;;;25.70;18.40;;;;;;5036105;28;20201;-86
2021/05/14 10:18:05;;;;;;;1.40;1.30;;;24.70;19.60;;;;;;5032269;28;20225;-87
2021/05/14 10:20:33;;;;;;;2.28;1.38;;;23.80;22.30;;;;;;5040818;28;20298;-86
2021/05/14 10:23:11;;;;;;;1.30;1.20;;;23.90;21.60;;;;;;5033023;28;20237;-88
2021/05/14 10:25:49;;;;;;;2.45;1.23;;;24.40;22.60;;;;;;5029783;28;20648;-87
2021/05/14 10:28:18;;;;;;;1.48;1.38;;;25.60;21.30;;;;;;5030010;28;20932;-89
2021/05/14 10:31:18;;;;;;;1.58;1.48;;;26.90;19.10;;;;;;5026794;28;20202;-89
2021/05/14 10:33:47;;;;;;;3.55;2.00;;;26.60;17.00;;;;;;5027742;28;20241;-87
2021/05/14 10:36:40;;;;;;;1.23;1.13;;;25.30;19.70;;;;;;5031487;28;20236;-86
2021/05/14 10:39:10;;;;;;;1.60;1.10;;;23.40;21.90;;;;;;5040729;28;20668;-88
2021/05/14 10:41:48;;;;;;;4.97;3.22;;;22.20;23.50;;;;;;5024908;28;20288;-90
2021/05/14 10:44:15;;;;;;;0.85;0.80;;;21.50;25.10;;;;;;5034537;28;20191;-90
2021/05/14 10:46:55;;;;;;;1.23;0.98;;;20.40;26.80;;;;;;5036438;28;20286;-90
2021/05/14 10:49:41;;;;;;;1.73;0.85;;;19.50;28.60;;;;;;5039644;28;20218;-88
2021/05/14 10:52:07;;;;;;;5.30;4.15;;;18.90;31.10;;;;;;5043934;28;20226;-88
2021/05/14 10:54:53;;;;;;;1.20;1.05;;;18.70;31.10;;;;;;5057950;28;20661;-86
2021/05/14 10:57:48;;;;;;;7.72;5.53;;;18.80;29.80;;;;;;5041943;28;20214;-87
2021/05/14 11:03:39;;;;;;;1.20;0.77;;;18.10;30.50;;;;;;5056025;28;20213;-87
2021/05/14 11:06:12;;;;;;;3.22;2.45;;;18.10;30.50;;;;;;5026206;28;20207;-87
2021/05/14 11:08:44;;;;;;;2.22;0.98;;;18.10;31.60;;;;;;5025791;28;20199;-88
2021/05/14 11:11:13;;;;;;;3.08;2.35;;;18.30;33.40;;;;;;5030767;28;20223;-90
2021/05/14 11:13:49;;;;;;;2.55;0.95;;;18.30;35.30;;;;;;5014163;28;20199;-89
2021/05/14 11:16:38;;;;;;;1.02;0.70;;;18.40;33.80;;;;;;5042143;28;20228;-88
2021/05/14 11:19:17;;;;;;;1.00;0.80;;;18.70;33.80;;;;;;5035009;28;20210;-88
2021/05/14 11:22:18;;;;;;;6.80;3.55;;;19.20;31.40;;;;;;5031735;28;20677;-90
2021/05/14 11:24:52;;;;;;;0.93;0.80;;;19.40;31.60;;;;;;5034432;28;20287;-89
2021/05/14 11:27:21;;;;;;;12.02;8.95;;;19.80;31.90;;;;;;5029533;28;20280;-88
2021/05/14 11:29:54;;;;;;;0.93;0.75;;;19.80;28.40;;;;;;5031508;28;20234;-90
2021/05/14 11:32:24;;;;;;;1.60;1.00;;;20.30;32.30;;;;;;5037103;28;20250;-89
2021/05/14 11:35:01;;;;;;;1.75;1.00;;;19.70;29.60;;;;;;5030299;28;20286;-89
2021/05/14 11:37:30;;;;;;;1.15;0.85;;;19.20;31.40;;;;;;5014167;28;20223;-87
2021/05/14 11:39:57;;;;;;;0.90;0.90;;;18.60;30.90;;;;;;5029653;28;20195;-88
2021/05/14 11:42:26;;;;;;;1.35;1.00;;;18.40;32.50;;;;;;5033109;28;20304;-88
2021/05/14 11:45:02;;;;;;;1.10;1.00;;;17.90;31.40;;;;;;5030396;28;20203;-87
2021/05/14 11:47:29;;;;;;;0.90;0.90;;;17.90;34.10;;;;;;5032622;28;20225;-87
2021/05/14 11:49:57;;;;;;;1.00;0.90;;;18.10;30.50;;;;;;5018313;28;20194;-88
2021/05/14 11:52:34;;;;;;;4.97;3.80;;;18.10;31.10;;;;;;5041813;28;20218;-89
2021/05/14 11:55:05;;;;;;;8.45;5.50;;;18.00;30.40;;;;;;5033275;28;20198;-90
2021/05/14 11:57:32;;;;;;;0.82;0.80;;;17.50;32.00;;;;;;5037701;28;20226;-89
2021/05/14 12:00:09;;;;;;;1.33;1.17;;;17.50;34.10;;;;;;5035609;28;20236;-89
2021/05/14 12:02:37;;;;;;;1.58;1.00;;;17.40;34.00;;;;;;5012962;28;20222;-91
2021/05/14 12:05:07;;;;;;;2.30;0.70;;;17.20;33.60;;;;;;5032820;28;20241;-90
2021/05/14 12:07:34;;;;;;;1.63;1.15;;;17.30;32.90;;;;;;5015392;28;20217;-88
2021/05/14 12:10:02;;;;;;;1.00;0.80;;;17.70;32.80;;;;;;5046418;28;20202;-89
2021/05/14 12:12:29;;;;;;;0.93;0.73;;;17.80;34.80;;;;;;5038693;28;20225;-90
2021/05/14 12:15:31;;;;;;;1.30;0.95;;;17.90;30.30;;;;;;5005910;28;20206;-88
2021/05/14 12:18:02;;;;;;;0.80;0.80;;;18.20;31.90;;;;;;5028892;28;20248;-89
2021/05/14 12:20:38;;;;;;;1.10;1.00;;;18.40;31.10;;;;;;5049056;28;20194;-86
2021/05/14 12:23:06;;;;;;;1.60;1.48;;;18.80;31.00;;;;;;5049359;28;20221;-87
2021/05/14 12:25:47;;;;;;;1.52;1.00;;;19.10;31.30;;;;;;5049568;28;20206;-86
2021/05/14 12:28:33;;;;;;;2.30;0.80;;;19.40;31.60;;;;;;5046202;28;20231;-86
2021/05/14 12:31:00;;;;;;;1.65;1.08;;;19.00;29.30;;;;;;5048575;28;20207;-86
2021/05/14 12:33:28;;;;;;;1.23;0.70;;;18.80;29.50;;;;;;5036532;28;20207;-86
2021/05/14 12:36:07;;;;;;;1.10;1.02;;;18.90;31.10;;;;;;5041251;28;20209;-88
2021/05/14 12:38:41;;;;;;;0.80;0.70;;;19.30;31.50;;;;;;5042640;28;20241;-86
2021/05/14 12:41:24;;;;;;;2.35;1.23;;;19.60;31.70;;;;;;5048585;28;20273;-86
2021/05/14 12:44:24;;;;;;;1.13;0.70;;;19.40;28.30;;;;;;5034900;28;20210;-86
2021/05/14 12:47:07;;;;;;;2.92;1.40;;;19.30;30.30;;;;;;5054935;28;20230;-86
2021/05/14 12:49:41;;;;;;;1.77;0.90;;;19.50;30.90;;;;;;5045488;28;20247;-89
2021/05/14 12:52:09;;;;;;;3.08;0.90;;;19.40;31.60;;;;;;5040313;28;20366;-88
2021/05/14 12:54:37;;;;;;;1.25;0.90;;;19.40;31.60;;;;;;5065026;28;20204;-86
2021/05/14 12:57:05;;;;;;;1.25;1.15;;;19.40;31.60;;;;;;5049395;28;20577;-85
2021/05/14 12:59:58;;;;;;;1.05;0.93;;;19.40;31.60;;;;;;5049465;28;20215;-85
2021/05/14 13:02:36;;;;;;;2.63;1.00;;;18.80;30.00;;;;;;5041241;28;20222;-86
2021/05/14 13:05:18;;;;;;;1.27;0.98;;;18.80;31.00;;;;;;5039177;28;20283;-87
2021/05/14 13:07:59;;;;;;;1.00;0.90;;;18.90;28.90;;;;;;5042067;28;20218;-88
2021/05/14 13:10:42;;;;;;;2.10;1.83;;;19.30;30.40;;;;;;5046172;28;20241;-89
2021/05/14 13:13:09;;;;;;;0.75;0.75;;;19.10;29.10;;;;;;5039242;28;20254;-84
2021/05/14 13:15:35;;;;;;;2.15;1.00;;;19.00;31.20;;;;;;5045619;28;20207;-89
2021/05/14 13:18:03;;;;;;;3.10;1.90;;;19.10;31.30;;;;;;5048473;28;20222;-87
2021/05/14 13:20:31;;;;;;;1.45;1.08;;;19.20;31.40;;;;;;5046989;28;20221;-91
2021/05/14 13:22:58;;;;;;;3.35;3.00;;;19.00;29.20;;;;;;5051266;28;20221;-89
2021/05/14 13:25:38;;;;;;;0.77;0.75;;;18.70;30.40;;;;;;5048101;28;20223;-88
2021/05/14 13:28:59;;;;;;;1.70;1.58;;;18.80;31.00;;;;;;5064354;23;20214;-87
2021/05/14 13:34:47;;;;;;;1.33;1.08;;;18.60;33.20;;;;;;5050583;28;20198;-84
2021/05/14 13:37:18;;;;;;;1.10;0.90;;;18.70;31.00;;;;;;5012444;28;20231;-85
2021/05/14 13:39:44;;;;;;;0.95;0.85;;;18.60;30.90;;;;;;5049377;28;20647;-85
2021/05/14 13:42:11;;;;;;;1.67;0.98;;;18.80;31.00;;;;;;5049563;28;20226;-85
2021/05/14 13:44:37;;;;;;;1.38;0.82;;;19.00;31.20;;;;;;5040684;28;20203;-87
2021/05/14 13:47:09;;;;;;;0.90;0.82;;;18.90;30.50;;;;;;5048803;28;20218;-85
2021/05/14 13:49:35;;;;;;;1.10;0.90;;;19.10;30.40;;;;;;5048840;28;20194;-86
2021/05/14 13:52:03;;;;;;;0.98;0.90;;;18.80;30.00;;;;;;5044697;28;20232;-85
2021/05/14 13:54:40;;;;;;;4.47;0.70;;;18.90;31.10;;;;;;5051108;28;20199;-86
2021/05/14 13:57:07;;;;;;;1.08;1.05;;;19.00;31.20;;;;;;5050471;28;20233;-85
2021/05/14 13:59:33;;;;;;;0.70;0.63;;;18.80;30.00;;;;;;5048926;28;20187;-84
2021/05/14 14:02:00;;;;;;;2.05;0.73;;;19.10;31.30;;;;;;5047634;28;20261;-85
2021/05/14 14:04:34;;;;;;;2.28;1.83;;;19.30;31.50;;;;;;5051411;28;20194;-86
2021/05/14 14:07:01;;;;;;;2.30;0.80;;;19.50;29.00;;;;;;5045898;28;20232;-85
2021/05/14 14:09:27;;;;;;;1.40;1.30;;;19.40;27.80;;;;;;5049741;28;20263;-84
2021/05/14 14:11:56;;;;;;;1.48;1.10;;;19.20;29.10;;;;;;5048118;28;20272;-87
2021/05/14 14:14:25;;;;;;;1.55;1.40;;;19.40;29.00;;;;;;5047901;28;20690;-86
2021/05/14 14:17:15;;;;;;;3.38;1.75;;;19.70;28.70;;;;;;5047865;28;20242;-85
2021/05/14 14:19:42;;;;;;;0.63;0.60;;;19.80;31.20;;;;;;5048806;28;20207;-87
2021/05/14 14:22:14;;;;;;;1.20;0.80;;;19.90;28.20;;;;;;5039062;28;20222;-85
2021/05/14 14:24:40;;;;;;;0.80;0.80;;;19.90;28.20;;;;;;5048476;28;20221;-88
2021/05/14 14:27:09;;;;;;;0.90;0.90;;;19.80;28.00;;;;;;5048303;28;20230;-85
2021/05/14 14:29:38;;;;;;;1.38;0.88;;;19.80;27.00;;;;;;5059233;28;20230;-86
2021/05/14 14:32:05;;;;;;;1.70;1.20;;;19.70;27.90;;;;;;5068186;28;20708;-86
2021/05/14 14:34:31;;;;;;;2.95;1.90;;;19.80;28.30;;;;;;5062535;28;20194;-86
2021/05/14 14:36:58;;;;;;;0.95;0.80;;;19.20;28.40;;;;;;5062597;28;20229;-86
2021/05/14 14:39:40;;;;;;;0.80;0.80;;;19.30;28.40;;;;;;5060891;28;20225;-86
2021/05/14 14:42:08;;;;;;;1.20;1.10;;;18.90;29.20;;;;;;5061162;28;20259;-86
2021/05/14 14:44:34;;;;;;;2.05;1.25;;;18.70;31.00;;;;;;5064869;28;20635;-88
2021/05/14 14:47:01;;;;;;;1.10;0.82;;;19.00;31.20;;;;;;5062605;28;20222;-90
2021/05/14 14:49:28;;;;;;;2.17;0.88;;;19.20;31.40;;;;;;5046147;28;20206;-86
2021/05/14 14:51:54;;;;;;;0.82;0.82;;;19.30;31.50;;;;;;5054216;28;20230;-87
2021/05/14 14:54:36;;;;;;;0.80;0.80;;;18.90;29.70;;;;;;5084572;28;20205;-86
2021/05/14 14:57:03;;;;;;;2.28;1.80;;;18.80;29.70;;;;;;5074476;28;20235;-91
2021/05/14 14:59:53;;;;;;;1.45;0.90;;;18.70;31.00;;;;;;5063757;28;20195;-87
2021/05/14 15:02:20;;;;;;;3.28;1.42;;;18.40;30.70;;;;;;5060254;28;20585;-88
2021/05/14 15:04:46;;;;;;;2.08;1.27;;;18.30;30.60;;;;;;5065617;28;20216;-87
2021/05/14 15:07:23;;;;;;;2.53;1.10;;;18.20;30.60;;;;;;5063069;28;20274;-87
2021/05/14 15:10:03;;;;;;;1.05;0.90;;;18.00;30.40;;;;;;5041265;28;20210;-86
2021/05/14 15:12:29;;;;;;;0.82;0.82;;;17.80;30.20;;;;;;5058420;28;20222;-86
2021/05/14 15:14:57;;;;;;;1.63;1.50;;;17.80;30.30;;;;;;5061509;28;20199;-89
2021/05/14 15:17:25;;;;;;;0.70;0.70;;;17.70;31.00;;;;;;5061071;28;20244;-87
2021/05/14 15:19:51;;;;;;;0.70;0.70;;;17.60;31.50;;;;;;5037996;28;20228;-92
2021/05/14 15:22:18;;;;;;;2.85;1.23;;;17.60;32.30;;;;;;5069495;28;20217;-87
2021/05/14 15:24:45;;;;;;;2.30;1.70;;;17.80;34.90;;;;;;5064632;28;20222;-88
2021/05/14 15:27:11;;;;;;;1.70;1.00;;;17.80;32.70;;;;;;5066036;28;20285;-87
2021/05/14 15:30:24;;;;;;;4.47;0.90;;;17.80;31.40;;;;;;5073548;23;20305;-86
2021/05/14 15:32:51;;;;;;;0.90;0.85;;;18.10;30.90;;;;;;5039385;28;20260;-91
2021/05/14 15:35:18;;;;;;;1.30;1.20;;;18.30;30.60;;;;;;5048449;28;20199;-89
2021/05/14 15:37:45;;;;;;;0.90;0.90;;;18.70;31.00;;;;;;5046360;28;20226;-88
2021/05/14 15:40:12;;;;;;;1.10;0.90;;;19.10;31.30;;;;;;5048533;28;20205;-88
2021/05/14 15:42:39;;;;;;;2.28;0.70;;;19.40;29.30;;;;;;5053710;28;20530;-88
2021/05/14 15:45:47;;;;;;;1.00;0.77;;;19.50;28.50;;;;;;5049197;28;20193;-88
2021/05/14 15:48:16;;;;;;;1.30;0.75;;;19.40;28.70;;;;;;5051397;28;20236;-89
2021/05/14 15:50:45;;;;;;;2.25;0.82;;;19.30;29.90;;;;;;5058026;28;20189;-88
2021/05/14 15:53:53;;;;;;;1.50;0.98;;;19.30;30.30;;;;;;5065867;28;20228;-88
2021/05/14 15:56:19;;;;;;;0.75;0.75;;;19.30;29.80;;;;;;5067618;28;20281;-88
2021/05/14 16:02:09;;;;;;;1.20;1.00;;;19.10;29.90;;;;;;5049072;28;20205;-90
2021/05/14 16:04:39;;;;;;;1.13;1.02;;;18.90;29.00;;;;;;5037400;28;20234;-91
2021/05/14 16:07:25;;;;;;;1.23;1.08;;;18.70;28.70;;;;;;5050318;28;20233;-88
2021/05/14 16:09:57;;;;;;;1.05;0.98;;;18.30;30.70;;;;;;5044631;28;20268;-89
2021/05/14 16:12:52;;;;;;;1.25;1.00;;;18.00;30.50;;;;;;5030230;28;20252;-88
2021/05/14 16:15:28;;;;;;;1.20;0.80;;;17.80;30.20;;;;;;5048768;28;20263;-88
2021/05/14 16:17:57;;;;;;;1.27;1.10;;;17.80;30.20;;;;;;5052122;28;20241;-87
2021/05/14 16:20:32;;;;;;;0.95;0.95;;;17.80;30.20;;;;;;5050488;28;20210;-88
2021/05/14 16:23:05;;;;;;;0.70;0.63;;;17.80;31.90;;;;;;5026962;28;20233;-87
2021/05/14 16:25:33;;;;;;;1.17;1.08;;;17.70;30.10;;;;;;5047248;28;20262;-89
2021/05/14 16:28:00;;;;;;;0.88;0.88;;;17.70;30.10;;;;;;5032524;28;20228;-88
2021/05/14 16:30:43;;;;;;;2.55;0.63;;;17.70;30.30;;;;;;5041229;28;20205;-90
2021/05/14 16:33:11;;;;;;;2.35;0.80;;;17.60;30.00;;;;;;5040096;28;20226;-87
2021/05/14 16:35:40;;;;;;;1.02;0.82;;;17.60;30.00;;;;;;5046544;28;20194;-87
2021/05/14 16:38:07;;;;;;;0.80;0.80;;;17.50;30.00;;;;;;5031612;28;20268;-88
2021/05/14 16:40:34;;;;;;;1.67;0.93;;;17.40;29.90;;;;;;5051553;28;20343;-89
2021/05/14 16:43:00;;;;;;;0.77;0.73;;;17.50;30.00;;;;;;5044952;28;20257;-87
2021/05/14 16:45:26;;;;;;;0.73;0.70;;;17.40;29.90;;;;;;5046961;28;20198;-89
2021/05/14 16:47:53;;;;;;;1.58;0.80;;;17.40;30.10;;;;;;5046593;28;20289;-88
2021/05/14 16:50:21;;;;;;;1.40;0.73;;;17.40;31.70;;;;;;5053572;28;20258;-87
2021/05/14 16:52:49;;;;;;;1.35;0.73;;;17.30;29.80;;;;;;5053584;28;20235;-89
2021/05/14 16:55:40;;;;;;;2.40;1.00;;;17.10;32.30;;;;;;5048360;28;20198;-89
2021/05/14 16:58:06;;;;;;;0.50;0.50;;;16.90;33.20;;;;;;5033465;28;20249;-89
2021/05/14 17:01:01;;;;;;;1.23;0.98;;;16.70;31.90;;;;;;5043089;28;20213;-90
2021/05/14 17:03:28;;;;;;;1.90;1.00;;;16.70;33.50;;;;;;5041391;28;20214;-89
2021/05/14 17:06:04;;;;;;;2.53;0.95;;;16.70;32.90;;;;;;5039491;28;20241;-88
2021/05/14 17:08:36;;;;;;;0.70;0.70;;;16.80;32.00;;;;;;5039162;28;20236;-90
2021/05/14 17:11:05;;;;;;;0.80;0.80;;;16.70;32.00;;;;;;5036717;28;20199;-90
2021/05/14 17:13:32;;;;;;;1.52;0.82;;;16.70;32.00;;;;;;5050222;28;20286;-92
2021/05/14 17:16:26;;;;;;;1.30;1.05;;;16.80;33.50;;;;;;5039796;28;20212;-89
2021/05/14 17:18:52;;;;;;;1.23;1.02;;;16.90;33.00;;;;;;5038005;28;20210;-89
2021/05/14 17:21:19;;;;;;;1.42;1.00;;;17.00;31.90;;;;;;5041407;28;20249;-90
2021/05/14 17:29:51;;;;;;;0.70;0.70;;;17.20;33.30;;;;;;5043200;28;20241;-91
2021/05/14 17:35:17;;;;;;;1.63;0.90;;;17.00;31.20;;;;;;5018711;28;20229;-91
2021/05/14 17:41:10;;;;;;;3.05;1.00;;;16.90;33.40;;;;;;5045016;28;20206;-89
2021/05/14 17:43:37;;;;;;;1.05;0.90;;;16.80;35.80;;;;;;5040911;28;20218;-89
2021/05/14 17:49:57;;;;;;;1.02;1.00;;;16.70;35.80;;;;;;5038826;28;20190;-90
2021/05/14 17:53:05;;;;;;;1.17;1.00;;;16.60;36.70;;;;;;5020999;28;20223;-89
2021/05/14 17:55:31;;;;;;;1.27;0.88;;;16.50;36.60;;;;;;5038886;28;20197;-89
2021/05/14 18:00:50;;;;;;;2.25;1.00;;;16.30;37.60;;;;;;4997928;28;20287;-93
2021/05/14 18:03:16;;;;;;;1.95;1.40;;;16.10;38.50;;;;;;5042832;28;20592;-93
2021/05/14 18:05:43;;;;;;;1.75;1.00;;;16.10;38.60;;;;;;5053142;28;20249;-91
2021/05/14 18:08:09;;;;;;;1.20;1.10;;;15.90;39.10;;;;;;5029004;28;20221;-92
2021/05/14 18:15:57;;;;;;;2.17;1.42;;;15.60;39.00;;;;;;4996390;28;20199;-93
2021/05/14 18:18:38;;;;;;;1.90;1.20;;;15.50;40.20;;;;;;5034140;28;20210;-87
2021/05/14 18:21:05;;;;;;;2.42;2.22;;;15.40;41.10;;;;;;5025216;28;20665;-88
2021/05/14 18:23:31;;;;;;;2.10;1.42;;;15.30;41.00;;;;;;5037644;28;20289;-91
2021/05/14 18:25:58;;;;;;;1.65;1.55;;;15.20;42.30;;;;;;5037419;28;20206;-90
2021/05/14 18:28:27;;;;;;;1.58;1.40;;;15.00;42.10;;;;;;5037998;28;20317;-89
2021/05/14 18:30:56;;;;;;;1.80;1.40;;;14.90;43.10;;;;;;5038377;28;20210;-91
2021/05/14 18:33:23;;;;;;;1.77;1.25;;;14.80;44.00;;;;;;5037018;28;20295;-89
2021/05/14 18:35:51;;;;;;;1.70;1.60;;;14.80;43.90;;;;;;5034501;28;20198;-90
2021/05/14 18:38:19;;;;;;;2.67;1.40;;;14.70;45.10;;;;;;5040647;28;20236;-89
2021/05/14 18:40:46;;;;;;;2.30;1.30;;;14.60;47.20;;;;;;5042045;28;20217;-91
2021/05/14 19:05:58;;;;;;;2.13;1.13;;;13.70;55.90;;;;;;5032695;28;20259;-93
2021/05/14 19:08:24;;;;;;;1.80;1.33;;;13.60;56.40;;;;;;5016281;28;20246;-92
2021/05/14 19:10:51;;;;;;;2.45;1.88;;;13.50;58.50;;;;;;5049286;28;20196;-92
2021/05/14 19:13:18;;;;;;;3.60;2.13;;;13.40;60.20;;;;;;5047625;28;20221;-92
2021/05/14 19:18:28;;;;;;;8.90;6.28;;;13.20;62.30;;;;;;5042783;28;20194;-89
2021/05/14 19:20:55;;;;;;;5.50;4.45;;;13.10;62.40;;;;;;5058065;28;20193;-92
2021/05/14 19:23:39;;;;;;;4.88;3.63;;;13.10;63.00;;;;;;5041922;28;20230;-91
2021/05/14 19:26:29;;;;;;;4.72;3.22;;;13.00;64.00;;;;;;5038676;28;20202;-91
2021/05/14 19:37:23;;;;;;;3.00;2.03;;;13.00;67.50;;;;;;5022719;28;20235;-88
2021/05/14 19:43:10;;;;;;;4.10;2.47;;;12.90;70.70;;;;;;5005081;28;20757;-91
2021/05/14 19:45:43;;;;;;;2.95;2.17;;;12.90;70.40;;;;;;5009559;28;20207;-89
2021/05/14 19:48:13;;;;;;;3.10;1.80;;;12.90;71.80;;;;;;5035009;28;20202;-89
2021/05/14 19:50:42;;;;;;;3.13;2.15;;;12.90;73.60;;;;;;5034957;28;20208;-90
2021/05/14 19:53:09;;;;;;;3.15;2.35;;;12.90;72.70;;;;;;4999861;28;20286;-91
2021/05/14 19:55:36;;;;;;;5.07;2.88;;;12.90;73.00;;;;;;5022821;28;20211;-91
2021/05/14 19:58:02;;;;;;;2.70;1.90;;;12.90;74.10;;;;;;5022084;28;20233;-92
2021/05/14 20:00:30;;;;;;;4.93;1.98;;;12.80;73.00;;;;;;5021649;28;20199;-91
2021/05/14 20:02:58;;;;;;;2.45;2.25;;;12.70;72.70;;;;;;5022398;28;20290;-91
2021/05/14 20:05:37;;;;;;;3.00;2.05;;;12.60;75.60;;;;;;5023605;28;20203;-91
2021/05/14 20:08:27;;;;;;;4.35;2.50;;;12.50;75.50;;;;;;5027681;28;20681;-92
2021/05/14 20:13:49;;;;;;;5.55;2.30;;;12.10;76.20;;;;;;5776007;23;20230;-90
2021/05/14 20:16:16;;;;;;;4.05;2.50;;;12.00;77.40;;;;;;5045267;28;20198;-90
2021/05/14 20:18:42;;;;;;;3.35;2.40;;;12.00;78.20;;;;;;5054881;28;20194;-92
2021/05/14 20:21:09;;;;;;;4.38;2.60;;;12.00;77.80;;;;;;5054099;28;20195;-89
2021/05/14 20:51:27;;;;;;;6.75;2.97;;;11.70;83.50;;;;;;5013342;28;20190;-88
2021/05/14 20:57:17;;;;;;;3.42;1.90;;;12.40;75.40;;;;;;5013732;28;20256;-89
2021/05/14 21:06:06;;;;;;;2.80;1.10;;;12.80;66.00;;;;;;5033993;28;20198;-88
2021/05/14 21:54:11;;;;;;;1.17;1.08;;;12.30;64.20;;;;;;5027670;28;20218;-91
2021/05/14 21:56:38;;;;;;;1.27;1.10;;;12.20;65.50;;;;;;5032255;28;20258;-89
2021/05/14 21:59:05;;;;;;;1.13;0.85;;;12.20;65.30;;;;;;5005238;28;20207;-89
2021/05/14 22:01:36;;;;;;;2.70;0.93;;;12.20;66.50;;;;;;5021565;28;20226;-89
2021/05/14 22:04:16;;;;;;;3.28;1.17;;;12.20;67.10;;;;;;5043616;28;20234;-88
2021/05/14 22:06:48;;;;;;;1.20;0.80;;;12.20;66.40;;;;;;5025997;28;20231;-90
2021/05/14 22:09:17;;;;;;;1.58;1.00;;;12.30;66.10;;;;;;5009725;28;20200;-90
2021/05/14 22:11:43;;;;;;;2.08;1.00;;;12.30;66.10;;;;;;5010231;28;20251;-89
2021/05/14 22:14:10;;;;;;;2.00;1.00;;;12.30;65.80;;;;;;5030376;28;20229;-89
2021/05/14 22:16:36;;;;;;;0.82;0.80;;;12.30;69.00;;;;;;5028394;28;20233;-89
2021/05/14 22:19:03;;;;;;;1.00;0.90;;;12.20;67.80;;;;;;5048854;28;20233;-90
2021/05/14 22:21:30;;;;;;;1.83;1.02;;;12.30;66.50;;;;;;5046941;28;20282;-89
2021/05/14 22:23:57;;;;;;;2.30;1.00;;;12.40;66.40;;;;;;5030507;28;20249;-89
2021/05/14 22:26:24;;;;;;;1.55;1.27;;;12.40;66.10;;;;;;5042694;28;20289;-90
2021/05/14 22:28:50;;;;;;;1.52;1.10;;;12.40;64.20;;;;;;5044761;28;20200;-90
2021/05/14 22:31:22;;;;;;;1.98;1.27;;;12.50;65.00;;;;;;5044255;28;20281;-89
2021/05/14 22:33:48;;;;;;;1.75;1.42;;;12.40;69.40;;;;;;5047604;28;20206;-88
2021/05/14 22:36:15;;;;;;;1.83;1.50;;;12.30;69.40;;;;;;5030059;28;20556;-89
2021/05/14 22:44:25;;;;;;;2.65;0.90;;;12.10;76.10;;;;;;5041994;28;20226;-90
2021/05/14 22:46:51;;;;;;;1.88;0.90;;;12.10;75.20;;;;;;5031595;28;20238;-89
2021/05/14 22:49:38;;;;;;;1.73;1.10;;;12.00;75.30;;;;;;5035603;28;20228;-90
2021/05/14 22:52:05;;;;;;;1.20;1.10;;;11.90;75.50;;;;;;5011556;28;20254;-90
2021/05/14 22:54:32;;;;;;;2.50;1.05;;;11.90;76.70;;;;;;5046826;28;20282;-89
2021/05/14 22:59:41;;;;;;;1.98;1.10;;;12.00;76.40;;;;;;5035291;28;20209;-88
2021/05/14 23:02:09;;;;;;;2.95;1.13;;;11.90;77.50;;;;;;5026446;28;20257;-89
2021/05/14 23:04:40;;;;;;;2.70;1.50;;;12.00;77.60;;;;;;5045064;28;20230;-89
2021/05/14 23:07:08;;;;;;;1.52;1.30;;;11.90;77.90;;;;;;5047294;28;20237;-88
2021/05/14 23:09:34;;;;;;;2.35;1.15;;;11.90;78.20;;;;;;5046227;28;20202;-91
2021/05/14 23:12:02;;;;;;;1.48;1.10;;;11.90;79.80;;;;;;5036697;28;20286;-89
2021/05/14 23:14:29;;;;;;;2.15;1.23;;;11.80;79.90;;;;;;5037048;28;20732;-90
2021/05/14 23:16:55;;;;;;;1.48;1.17;;;11.80;80.80;;;;;;5011231;28;20334;-89
2021/05/14 23:19:22;;;;;;;4.32;1.20;;;11.90;79.70;;;;;;5045230;28;20191;-90
2021/05/14 23:21:50;;;;;;;1.95;1.05;;;11.80;78.50;;;;;;5029469;28;20226;-89
2021/05/14 23:27:20;;;;;;;2.85;1.20;;;11.90;79.00;;;;;;5040426;28;20782;-91
2021/05/14 23:32:31;;;;;;;2.78;1.30;;;11.80;79.30;;;;;;5041671;28;20249;-89
2021/05/14 23:37:45;;;;;;;2.30;1.20;;;11.70;79.40;;;;;;5012230;28;20202;-89
2021/05/14 23:45:44;;;;;;;1.75;1.30;;;11.80;77.70;;;;;;5043735;28;20205;-90
2021/05/14 23:48:38;;;;;;;1.13;0.98;;;11.70;77.60;;;;;;4949410;29;20226;-88
2021/05/14 23:57:28;;;;;;;1.50;0.93;;;11.70;79.00;;;;;;4899853;29;20256;-89
